This is the latest recevied weather packets stored in our database for station/object DL2DHM-13. If no packets are shown the sender has not sent any weather packets the latest 10 day(s).
| Time | Temp. | Humidity | Pressure | Rain* | Wind** | Luminosity | Snow |
|---|---|---|---|---|---|---|---|
| 1777729839 | 25.56° C | 40% | 1015 hPa | 0 mm | - | 271 W/m² | - |
| 1777728044 | 26.11° C | 41% | 1015.2 hPa | 0 mm | - | 541 W/m² | - |
| 1777727433 | 26.11° C | 39% | 1015.3 hPa | 0 mm | - | 659 W/m² | - |
| 1777725629 | 26.11° C | 37% | 1015.6 hPa | 0 mm | - | 705 W/m² | - |
| 1777723826 | 26.11° C | 36% | 1016 hPa | 0 mm | - | 738 W/m² | - |
| 1777722623 | 25.56° C | 35% | 1016.2 hPa | 0 mm | - | 737 W/m² | - |
| 1777722320 | 25.56° C | 36% | 1016.2 hPa | 0 mm | - | 796 W/m² | - |
| 1777721417 | 25° C | - | 1016.6 hPa | 0 mm | - | 809 W/m² | - |
| 1777719920 | 25° C | 34% | 1016.8 hPa | 0 mm | - | 740 W/m² | - |
| 1777718414 | 24.44° C | 34% | 1017.1 hPa | 0 mm | - | 812 W/m² | - |
| 1777716305 | 23.89° C | 35% | 1017.6 hPa | 0 mm | - | 729 W/m² | - |
| 1777714858 | 23.33° C | 43% | 1017.8 hPa | 0 mm | - | 703 W/m² | - |
| 1777714557 | 23.33° C | 44% | 1017.8 hPa | 0 mm | - | 700 W/m² | - |
| 1777714274 | 22.78° C | 45% | 1017.9 hPa | 0 mm | - | 689 W/m² | - |
| 1777713354 | 22.22° C | 45% | 1018.1 hPa | 0 mm | - | 666 W/m² | - |
| 1777713051 | 21.67° C | 46% | 1018.1 hPa | 0 mm | - | 661 W/m² | - |
| 1777712750 | 21.67° C | 48% | 1018 hPa | 0 mm | - | 656 W/m² | - |
| 1777710339 | 21.11° C | 47% | 1018.4 hPa | 0 mm | - | 563 W/m² | - |
| 1777708843 | 20° C | 52% | 1018.6 hPa | 0 mm | - | 427 W/m² | - |
| 1777708229 | 18.89° C | 52% | 1018.5 hPa | 0 mm | - | 427 W/m² | - |
| 1777703404 | 15° C | 62% | 1018.9 hPa | 0 mm | - | 311 W/m² | - |
| 1777702861 | 14.44° C | 65% | 1018.9 hPa | 0 mm | - | 288 W/m² | - |
| 1777702561 | 14.44° C | 66% | 1018.9 hPa | 0 mm | - | 276 W/m² | - |
| 1777700452 | 11.67° C | 74% | 1019.2 hPa | 0 mm | - | 23 W/m² | - |
| 1777698960 | 10.56° C | 76% | 1019.3 hPa | 0 mm | - | 19 W/m² | - |
* Rain latest hour (hover to see other rain measurements)
** Current wind speed in m/s (hover to see current wind gust speed)